Terminal Aerodrome Forecast
Issued by NWS

Current Version | Previous Version | Graphics & Text | Print | Product List | Glossary On
Versions: 1 2 3 4 5 6 7 8 9 10 11 12 13 14 15 16 17 18 19 20 21 22 23 24 25 26
000
FTUS41 KRLX 030231 AAA
TAFCKB
TAF AMD
KCKB 030231Z 0303/0324 25005KT 6SM BR SCT015 BKN050
      TEMPO 0303/0305 BKN015
     FM030500 00000KT 6SM BR OVC015
     FM030700 00000KT 4SM -SHRA BR OVC008
     FM030900 VRB03KT 6SM BR OVC008
     FM031300 VRB03KT P6SM BKN008
     FM031600 32004KT P6SM BKN010
     FM032000 30006KT P6SM BKN025=

USA.gov is the U.S. government's official web portal to all federal, state and local government web resources and services.